sensor_id;sensor_type;location;lat;lon;timestamp;P1;durP1;ratioP1;P2;durP2;ratioP2
1949;SDS011;975;48.760;9.152;2024-03-29T00:01:25;4.13;;;1.20;;
1949;SDS011;975;48.760;9.152;2024-03-29T00:03:52;2.22;;;0.90;;
1949;SDS011;975;48.760;9.152;2024-03-29T00:06:19;3.15;;;1.00;;
1949;SDS011;975;48.760;9.152;2024-03-29T00:08:46;2.10;;;1.20;;
1949;SDS011;975;48.760;9.152;2024-03-29T00:11:13;2.85;;;1.17;;
1949;SDS011;975;48.760;9.152;2024-03-29T00:13:41;2.63;;;1.00;;
1949;SDS011;975;48.760;9.152;2024-03-29T00:16:08;2.65;;;1.10;;
1949;SDS011;975;48.760;9.152;2024-03-29T00:18:38;3.03;;;0.98;;
1949;SDS011;975;48.760;9.152;2024-03-29T00:21:05;3.42;;;1.00;;
1949;SDS011;975;48.760;9.152;2024-03-29T00:23:32;1.90;;;0.77;;
1949;SDS011;975;48.760;9.152;2024-03-29T00:25:58;3.40;;;0.90;;
1949;SDS011;975;48.760;9.152;2024-03-29T00:28:25;1.35;;;0.80;;
1949;SDS011;975;48.760;9.152;2024-03-29T00:30:53;1.55;;;0.93;;
1949;SDS011;975;48.760;9.152;2024-03-29T00:33:20;3.08;;;0.93;;
1949;SDS011;975;48.760;9.152;2024-03-29T00:35:47;1.45;;;0.88;;
1949;SDS011;975;48.760;9.152;2024-03-29T00:38:14;3.00;;;1.15;;
1949;SDS011;975;48.760;9.152;2024-03-29T00:40:41;1.58;;;0.95;;
1949;SDS011;975;48.760;9.152;2024-03-29T00:43:10;4.35;;;0.90;;
1949;SDS011;975;48.760;9.152;2024-03-29T00:45:37;2.63;;;1.08;;
1949;SDS011;975;48.760;9.152;2024-03-29T00:48:06;2.88;;;0.90;;
1949;SDS011;975;48.760;9.152;2024-03-29T00:50:33;6.80;;;1.00;;
1949;SDS011;975;48.760;9.152;2024-03-29T00:52:59;2.25;;;1.10;;
1949;SDS011;975;48.760;9.152;2024-03-29T00:55:26;1.83;;;0.82;;
1949;SDS011;975;48.760;9.152;2024-03-29T00:57:53;2.25;;;0.88;;
1949;SDS011;975;48.760;9.152;2024-03-29T01:00:20;3.85;;;1.02;;
1949;SDS011;975;48.760;9.152;2024-03-29T01:02:47;1.85;;;1.00;;
1949;SDS011;975;48.760;9.152;2024-03-29T01:05:15;3.05;;;1.00;;
1949;SDS011;975;48.760;9.152;2024-03-29T01:07:42;3.30;;;1.02;;
1949;SDS011;975;48.760;9.152;2024-03-29T01:10:09;4.72;;;1.05;;
1949;SDS011;975;48.760;9.152;2024-03-29T01:12:36;1.63;;;1.10;;
1949;SDS011;975;48.760;9.152;2024-03-29T01:15:03;2.03;;;0.90;;
1949;SDS011;975;48.760;9.152;2024-03-29T01:17:30;1.33;;;0.70;;
1949;SDS011;975;48.760;9.152;2024-03-29T01:19:57;1.33;;;0.65;;
1949;SDS011;975;48.760;9.152;2024-03-29T01:22:28;2.80;;;0.98;;
1949;SDS011;975;48.760;9.152;2024-03-29T01:24:55;1.63;;;0.73;;
1949;SDS011;975;48.760;9.152;2024-03-29T01:27:22;2.83;;;1.00;;
1949;SDS011;975;48.760;9.152;2024-03-29T01:29:48;2.47;;;0.80;;
1949;SDS011;975;48.760;9.152;2024-03-29T01:32:15;1.88;;;0.80;;
1949;SDS011;975;48.760;9.152;2024-03-29T01:34:42;1.60;;;0.80;;
1949;SDS011;975;48.760;9.152;2024-03-29T01:37:09;2.17;;;0.80;;
1949;SDS011;975;48.760;9.152;2024-03-29T01:39:37;3.15;;;0.90;;
1949;SDS011;975;48.760;9.152;2024-03-29T01:42:07;2.55;;;0.90;;
1949;SDS011;975;48.760;9.152;2024-03-29T01:44:33;3.30;;;1.02;;
1949;SDS011;975;48.760;9.152;2024-03-29T01:47:04;1.17;;;1.05;;
1949;SDS011;975;48.760;9.152;2024-03-29T01:49:35;4.25;;;0.75;;
1949;SDS011;975;48.760;9.152;2024-03-29T01:52:05;1.65;;;0.70;;
1949;SDS011;975;48.760;9.152;2024-03-29T01:54:33;3.75;;;0.90;;
1949;SDS011;975;48.760;9.152;2024-03-29T01:57:03;1.27;;;0.68;;
1949;SDS011;975;48.760;9.152;2024-03-29T01:59:30;2.67;;;0.93;;
1949;SDS011;975;48.760;9.152;2024-03-29T02:01:59;2.20;;;1.00;;
1949;SDS011;975;48.760;9.152;2024-03-29T02:04:28;2.42;;;0.80;;
1949;SDS011;975;48.760;9.152;2024-03-29T02:06:55;1.02;;;0.70;;
1949;SDS011;975;48.760;9.152;2024-03-29T02:09:23;2.97;;;0.85;;
1949;SDS011;975;48.760;9.152;2024-03-29T02:11:51;1.95;;;0.80;;
1949;SDS011;975;48.760;9.152;2024-03-29T02:14:20;3.50;;;0.70;;
1949;SDS011;975;48.760;9.152;2024-03-29T02:16:48;4.93;;;0.77;;
1949;SDS011;975;48.760;9.152;2024-03-29T02:19:16;1.45;;;0.90;;
1949;SDS011;975;48.760;9.152;2024-03-29T02:21:45;1.88;;;0.80;;
1949;SDS011;975;48.760;9.152;2024-03-29T02:24:16;2.05;;;0.73;;
1949;SDS011;975;48.760;9.152;2024-03-29T02:26:44;4.57;;;0.73;;
1949;SDS011;975;48.760;9.152;2024-03-29T02:29:12;2.28;;;0.82;;
1949;SDS011;975;48.760;9.152;2024-03-29T02:31:40;2.90;;;0.63;;
1949;SDS011;975;48.760;9.152;2024-03-29T02:34:07;4.90;;;0.80;;
1949;SDS011;975;48.760;9.152;2024-03-29T02:36:35;2.80;;;0.95;;
1949;SDS011;975;48.760;9.152;2024-03-29T02:39:03;3.45;;;0.90;;
1949;SDS011;975;48.760;9.152;2024-03-29T02:41:32;4.72;;;0.70;;
1949;SDS011;975;48.760;9.152;2024-03-29T02:44:00;1.67;;;0.73;;
1949;SDS011;975;48.760;9.152;2024-03-29T02:46:28;2.80;;;0.85;;
1949;SDS011;975;48.760;9.152;2024-03-29T02:48:56;1.83;;;0.63;;
1949;SDS011;975;48.760;9.152;2024-03-29T02:51:23;1.30;;;0.73;;
1949;SDS011;975;48.760;9.152;2024-03-29T02:53:50;0.80;;;0.60;;
1949;SDS011;975;48.760;9.152;2024-03-29T02:56:18;2.80;;;0.80;;
1949;SDS011;975;48.760;9.152;2024-03-29T02:58:48;1.20;;;0.50;;
1949;SDS011;975;48.760;9.152;2024-03-29T03:01:16;1.58;;;1.00;;
1949;SDS011;975;48.760;9.152;2024-03-29T03:03:42;1.65;;;0.63;;
1949;SDS011;975;48.760;9.152;2024-03-29T03:06:10;2.25;;;0.90;;
1949;SDS011;975;48.760;9.152;2024-03-29T03:08:37;1.38;;;0.60;;
1949;SDS011;975;48.760;9.152;2024-03-29T03:11:22;1.63;;;0.63;;
1949;SDS011;975;48.760;9.152;2024-03-29T03:13:51;0.80;;;0.70;;
1949;SDS011;975;48.760;9.152;2024-03-29T03:16:18;1.75;;;0.60;;
1949;SDS011;975;48.760;9.152;2024-03-29T03:18:46;1.42;;;0.63;;
1949;SDS011;975;48.760;9.152;2024-03-29T03:21:12;5.93;;;0.60;;
1949;SDS011;975;48.760;9.152;2024-03-29T03:23:40;1.38;;;0.40;;
1949;SDS011;975;48.760;9.152;2024-03-29T03:26:07;1.15;;;0.47;;
1949;SDS011;975;48.760;9.152;2024-03-29T03:28:34;1.48;;;0.63;;
1949;SDS011;975;48.760;9.152;2024-03-29T03:31:03;0.63;;;0.38;;
1949;SDS011;975;48.760;9.152;2024-03-29T03:33:32;0.55;;;0.40;;
1949;SDS011;975;48.760;9.152;2024-03-29T03:35:59;1.27;;;0.50;;
1949;SDS011;975;48.760;9.152;2024-03-29T03:38:32;0.38;;;0.32;;
1949;SDS011;975;48.760;9.152;2024-03-29T03:41:00;1.60;;;0.47;;
1949;SDS011;975;48.760;9.152;2024-03-29T03:43:28;1.15;;;0.52;;
1949;SDS011;975;48.760;9.152;2024-03-29T03:45:59;1.50;;;0.60;;
1949;SDS011;975;48.760;9.152;2024-03-29T03:48:28;0.60;;;0.38;;
1949;SDS011;975;48.760;9.152;2024-03-29T03:50:55;2.70;;;0.50;;
1949;SDS011;975;48.760;9.152;2024-03-29T03:53:22;1.55;;;0.20;;
1949;SDS011;975;48.760;9.152;2024-03-29T03:55:49;1.38;;;0.40;;
1949;SDS011;975;48.760;9.152;2024-03-29T03:58:21;1.27;;;0.40;;
1949;SDS011;975;48.760;9.152;2024-03-29T04:00:48;1.15;;;0.60;;
1949;SDS011;975;48.760;9.152;2024-03-29T04:03:15;0.50;;;0.30;;
1949;SDS011;975;48.760;9.152;2024-03-29T04:05:45;0.88;;;0.40;;
1949;SDS011;975;48.760;9.152;2024-03-29T04:08:13;0.70;;;0.57;;
1949;SDS011;975;48.760;9.152;2024-03-29T04:10:41;1.20;;;0.60;;
1949;SDS011;975;48.760;9.152;2024-03-29T04:13:09;0.95;;;0.55;;
1949;SDS011;975;48.760;9.152;2024-03-29T04:15:35;0.70;;;0.50;;
1949;SDS011;975;48.760;9.152;2024-03-29T04:18:03;0.50;;;0.35;;
1949;SDS011;975;48.760;9.152;2024-03-29T04:20:30;1.85;;;0.57;;
1949;SDS011;975;48.760;9.152;2024-03-29T04:22:59;1.33;;;0.47;;
1949;SDS011;975;48.760;9.152;2024-03-29T04:25:25;0.80;;;0.50;;
1949;SDS011;975;48.760;9.152;2024-03-29T04:27:53;1.98;;;0.43;;
1949;SDS011;975;48.760;9.152;2024-03-29T04:30:19;4.65;;;0.68;;
1949;SDS011;975;48.760;9.152;2024-03-29T04:32:47;1.25;;;0.50;;
1949;SDS011;975;48.760;9.152;2024-03-29T04:35:14;2.35;;;0.47;;
1949;SDS011;975;48.760;9.152;2024-03-29T04:37:41;2.30;;;0.50;;
1949;SDS011;975;48.760;9.152;2024-03-29T04:40:11;2.03;;;0.52;;
1949;SDS011;975;48.760;9.152;2024-03-29T04:42:38;1.40;;;0.68;;
1949;SDS011;975;48.760;9.152;2024-03-29T04:45:06;0.47;;;0.38;;
1949;SDS011;975;48.760;9.152;2024-03-29T04:47:34;0.73;;;0.50;;
1949;SDS011;975;48.760;9.152;2024-03-29T04:50:01;0.45;;;0.25;;
1949;SDS011;975;48.760;9.152;2024-03-29T04:52:29;0.43;;;0.32;;
1949;SDS011;975;48.760;9.152;2024-03-29T04:54:57;0.35;;;0.20;;
1949;SDS011;975;48.760;9.152;2024-03-29T04:57:26;0.47;;;0.20;;
1949;SDS011;975;48.760;9.152;2024-03-29T04:59:53;0.20;;;0.20;;
1949;SDS011;975;48.760;9.152;2024-03-29T05:02:21;0.40;;;0.22;;
1949;SDS011;975;48.760;9.152;2024-03-29T05:04:49;1.25;;;0.40;;
1949;SDS011;975;48.760;9.152;2024-03-29T05:07:16;0.10;;;0.10;;
1949;SDS011;975;48.760;9.152;2024-03-29T05:09:44;0.93;;;0.30;;
1949;SDS011;975;48.760;9.152;2024-03-29T05:12:12;0.40;;;0.20;;
1949;SDS011;975;48.760;9.152;2024-03-29T05:14:41;0.20;;;0.20;;
1949;SDS011;975;48.760;9.152;2024-03-29T05:17:08;1.00;;;0.50;;
1949;SDS011;975;48.760;9.152;2024-03-29T05:19:36;0.50;;;0.20;;
1949;SDS011;975;48.760;9.152;2024-03-29T05:22:03;0.63;;;0.50;;
1949;SDS011;975;48.760;9.152;2024-03-29T05:24:34;0.95;;;0.30;;
1949;SDS011;975;48.760;9.152;2024-03-29T05:27:02;1.95;;;0.40;;
1949;SDS011;975;48.760;9.152;2024-03-29T05:29:30;1.27;;;0.40;;
1949;SDS011;975;48.760;9.152;2024-03-29T05:31:59;0.45;;;0.30;;
1949;SDS011;975;48.760;9.152;2024-03-29T05:34:26;0.65;;;0.25;;
1949;SDS011;975;48.760;9.152;2024-03-29T05:36:54;0.55;;;0.40;;
1949;SDS011;975;48.760;9.152;2024-03-29T05:39:22;1.40;;;0.70;;
1949;SDS011;975;48.760;9.152;2024-03-29T05:41:49;0.50;;;0.20;;
1949;SDS011;975;48.760;9.152;2024-03-29T05:44:20;0.77;;;0.50;;
1949;SDS011;975;48.760;9.152;2024-03-29T05:46:47;0.20;;;0.20;;
1949;SDS011;975;48.760;9.152;2024-03-29T05:49:17;1.00;;;0.40;;
1949;SDS011;975;48.760;9.152;2024-03-29T05:51:45;0.88;;;0.30;;
1949;SDS011;975;48.760;9.152;2024-03-29T05:54:12;0.20;;;0.20;;
1949;SDS011;975;48.760;9.152;2024-03-29T05:56:40;0.10;;;0.10;;
1949;SDS011;975;48.760;9.152;2024-03-29T05:59:08;0.20;;;0.20;;
1949;SDS011;975;48.760;9.152;2024-03-29T06:01:37;1.23;;;0.30;;
1949;SDS011;975;48.760;9.152;2024-03-29T06:04:05;0.85;;;0.40;;
1949;SDS011;975;48.760;9.152;2024-03-29T06:06:41;0.20;;;0.20;;
1949;SDS011;975;48.760;9.152;2024-03-29T06:09:09;0.50;;;0.20;;
1949;SDS011;975;48.760;9.152;2024-03-29T06:11:37;0.50;;;0.30;;
1949;SDS011;975;48.760;9.152;2024-03-29T06:14:05;0.70;;;0.30;;
1949;SDS011;975;48.760;9.152;2024-03-29T06:16:50;0.20;;;0.10;;
1949;SDS011;975;48.760;9.152;2024-03-29T06:19:36;0.45;;;0.20;;
1949;SDS011;975;48.760;9.152;2024-03-29T06:22:08;0.80;;;0.30;;
1949;SDS011;975;48.760;9.152;2024-03-29T06:24:36;0.90;;;0.30;;
1949;SDS011;975;48.760;9.152;2024-03-29T06:27:05;1.13;;;0.30;;
1949;SDS011;975;48.760;9.152;2024-03-29T06:29:32;1.55;;;0.40;;
1949;SDS011;975;48.760;9.152;2024-03-29T06:32:02;0.63;;;0.28;;
1949;SDS011;975;48.760;9.152;2024-03-29T06:34:30;0.35;;;0.30;;
1949;SDS011;975;48.760;9.152;2024-03-29T06:36:58;0.30;;;0.30;;
1949;SDS011;975;48.760;9.152;2024-03-29T06:39:31;0.82;;;0.30;;
1949;SDS011;975;48.760;9.152;2024-03-29T06:41:58;0.20;;;0.20;;
1949;SDS011;975;48.760;9.152;2024-03-29T06:44:33;0.63;;;0.30;;
1949;SDS011;975;48.760;9.152;2024-03-29T06:47:02;3.65;;;1.42;;
1949;SDS011;975;48.760;9.152;2024-03-29T06:49:30;2.10;;;0.60;;
1949;SDS011;975;48.760;9.152;2024-03-29T06:51:59;2.63;;;0.50;;
1949;SDS011;975;48.760;9.152;2024-03-29T06:54:34;0.43;;;0.35;;
1949;SDS011;975;48.760;9.152;2024-03-29T06:57:05;3.72;;;0.30;;
1949;SDS011;975;48.760;9.152;2024-03-29T06:59:34;0.98;;;0.32;;
1949;SDS011;975;48.760;9.152;2024-03-29T07:02:06;0.45;;;0.30;;
1949;SDS011;975;48.760;9.152;2024-03-29T07:04:38;0.57;;;0.40;;
1949;SDS011;975;48.760;9.152;2024-03-29T07:07:06;0.80;;;0.40;;
1949;SDS011;975;48.760;9.152;2024-03-29T07:09:39;0.95;;;0.50;;
1949;SDS011;975;48.760;9.152;2024-03-29T07:12:07;2.53;;;1.20;;
1949;SDS011;975;48.760;9.152;2024-03-29T07:14:35;1.17;;;0.35;;
1949;SDS011;975;48.760;9.152;2024-03-29T07:17:06;0.82;;;0.40;;
1949;SDS011;975;48.760;9.152;2024-03-29T07:19:36;1.02;;;0.63;;
1949;SDS011;975;48.760;9.152;2024-03-29T07:22:07;0.35;;;0.30;;
1949;SDS011;975;48.760;9.152;2024-03-29T07:24:37;0.90;;;0.47;;
1949;SDS011;975;48.760;9.152;2024-03-29T07:29:34;1.85;;;0.40;;
1949;SDS011;975;48.760;9.152;2024-03-29T07:32:03;1.02;;;0.40;;
1949;SDS011;975;48.760;9.152;2024-03-29T07:34:33;1.10;;;0.32;;
1949;SDS011;975;48.760;9.152;2024-03-29T07:37:05;2.17;;;0.30;;
1949;SDS011;975;48.760;9.152;2024-03-29T07:39:38;0.68;;;0.30;;
1949;SDS011;975;48.760;9.152;2024-03-29T07:44:36;0.85;;;0.40;;
1949;SDS011;975;48.760;9.152;2024-03-29T07:47:04;1.60;;;0.40;;
1949;SDS011;975;48.760;9.152;2024-03-29T07:49:32;1.15;;;0.50;;
1949;SDS011;975;48.760;9.152;2024-03-29T07:52:02;1.00;;;0.50;;
1949;SDS011;975;48.760;9.152;2024-03-29T07:54:34;6.78;;;0.55;;
1949;SDS011;975;48.760;9.152;2024-03-29T07:57:03;1.00;;;0.30;;
1949;SDS011;975;48.760;9.152;2024-03-29T07:59:34;0.68;;;0.47;;
1949;SDS011;975;48.760;9.152;2024-03-29T08:02:03;2.60;;;0.43;;
1949;SDS011;975;48.760;9.152;2024-03-29T08:04:31;0.47;;;0.30;;
1949;SDS011;975;48.760;9.152;2024-03-29T08:06:58;2.15;;;0.73;;
1949;SDS011;975;48.760;9.152;2024-03-29T08:09:26;1.08;;;0.52;;
1949;SDS011;975;48.760;9.152;2024-03-29T08:11:53;0.80;;;0.45;;
1949;SDS011;975;48.760;9.152;2024-03-29T08:14:21;2.05;;;0.85;;
1949;SDS011;975;48.760;9.152;2024-03-29T08:16:54;0.75;;;0.50;;
1949;SDS011;975;48.760;9.152;2024-03-29T08:19:23;2.28;;;0.73;;
1949;SDS011;975;48.760;9.152;2024-03-29T08:21:53;2.13;;;0.60;;
1949;SDS011;975;48.760;9.152;2024-03-29T08:24:20;1.65;;;0.65;;
1949;SDS011;975;48.760;9.152;2024-03-29T08:26:48;0.60;;;0.38;;
1949;SDS011;975;48.760;9.152;2024-03-29T08:29:15;1.08;;;0.63;;
1949;SDS011;975;48.760;9.152;2024-03-29T08:31:43;1.58;;;0.88;;
1949;SDS011;975;48.760;9.152;2024-03-29T08:34:11;1.63;;;0.52;;
1949;SDS011;975;48.760;9.152;2024-03-29T08:36:40;1.83;;;0.68;;
1949;SDS011;975;48.760;9.152;2024-03-29T08:39:08;3.35;;;1.10;;
1949;SDS011;975;48.760;9.152;2024-03-29T08:41:37;2.15;;;0.88;;
1949;SDS011;975;48.760;9.152;2024-03-29T08:44:07;2.28;;;0.63;;
1949;SDS011;975;48.760;9.152;2024-03-29T08:46:34;1.83;;;0.77;;
1949;SDS011;975;48.760;9.152;2024-03-29T08:49:02;4.75;;;0.88;;
1949;SDS011;975;48.760;9.152;2024-03-29T08:51:30;1.25;;;0.50;;
1949;SDS011;975;48.760;9.152;2024-03-29T08:53:59;1.17;;;0.73;;
1949;SDS011;975;48.760;9.152;2024-03-29T08:56:30;2.10;;;1.02;;
1949;SDS011;975;48.760;9.152;2024-03-29T08:58:58;0.90;;;0.52;;
1949;SDS011;975;48.760;9.152;2024-03-29T09:01:28;0.95;;;0.57;;
1949;SDS011;975;48.760;9.152;2024-03-29T09:03:56;1.30;;;0.75;;
1949;SDS011;975;48.760;9.152;2024-03-29T09:06:23;1.95;;;0.65;;
1949;SDS011;975;48.760;9.152;2024-03-29T09:08:52;2.92;;;0.73;;
1949;SDS011;975;48.760;9.152;2024-03-29T09:11:21;1.02;;;0.88;;
1949;SDS011;975;48.760;9.152;2024-03-29T09:13:49;2.00;;;0.68;;
1949;SDS011;975;48.760;9.152;2024-03-29T09:16:16;2.22;;;0.80;;
1949;SDS011;975;48.760;9.152;2024-03-29T09:18:44;1.67;;;1.00;;
1949;SDS011;975;48.760;9.152;2024-03-29T09:21:13;1.42;;;0.70;;
1949;SDS011;975;48.760;9.152;2024-03-29T09:23:41;1.33;;;0.70;;
1949;SDS011;975;48.760;9.152;2024-03-29T09:26:08;1.33;;;0.90;;
1949;SDS011;975;48.760;9.152;2024-03-29T09:28:39;2.17;;;0.90;;
1949;SDS011;975;48.760;9.152;2024-03-29T09:31:07;2.30;;;0.60;;
1949;SDS011;975;48.760;9.152;2024-03-29T09:33:34;2.75;;;0.85;;
1949;SDS011;975;48.760;9.152;2024-03-29T09:36:02;1.20;;;0.63;;
1949;SDS011;975;48.760;9.152;2024-03-29T09:38:30;1.50;;;0.73;;
1949;SDS011;975;48.760;9.152;2024-03-29T09:41:05;2.30;;;0.50;;
1949;SDS011;975;48.760;9.152;2024-03-29T09:43:33;1.13;;;0.40;;
1949;SDS011;975;48.760;9.152;2024-03-29T09:46:02;0.70;;;0.28;;
1949;SDS011;975;48.760;9.152;2024-03-29T09:48:30;1.75;;;0.95;;
1949;SDS011;975;48.760;9.152;2024-03-29T09:51:02;1.58;;;0.93;;
1949;SDS011;975;48.760;9.152;2024-03-29T09:53:30;4.63;;;0.60;;
1949;SDS011;975;48.760;9.152;2024-03-29T09:55:58;4.95;;;0.60;;
1949;SDS011;975;48.760;9.152;2024-03-29T09:58:26;0.55;;;0.47;;
1949;SDS011;975;48.760;9.152;2024-03-29T10:00:57;2.70;;;0.43;;
1949;SDS011;975;48.760;9.152;2024-03-29T10:03:28;1.33;;;0.80;;
1949;SDS011;975;48.760;9.152;2024-03-29T10:05:56;2.20;;;0.75;;
1949;SDS011;975;48.760;9.152;2024-03-29T10:08:25;1.10;;;0.73;;
1949;SDS011;975;48.760;9.152;2024-03-29T10:10:53;1.08;;;0.80;;
1949;SDS011;975;48.760;9.152;2024-03-29T10:13:24;3.80;;;1.05;;
1949;SDS011;975;48.760;9.152;2024-03-29T10:15:52;1.13;;;0.77;;
1949;SDS011;975;48.760;9.152;2024-03-29T10:18:21;2.83;;;1.00;;
1949;SDS011;975;48.760;9.152;2024-03-29T10:20:59;1.55;;;0.70;;
1949;SDS011;975;48.760;9.152;2024-03-29T10:23:27;2.35;;;1.30;;
1949;SDS011;975;48.760;9.152;2024-03-29T10:25:55;6.97;;;1.27;;
1949;SDS011;975;48.760;9.152;2024-03-29T10:28:22;1.63;;;1.00;;
1949;SDS011;975;48.760;9.152;2024-03-29T10:30:50;2.53;;;1.15;;
1949;SDS011;975;48.760;9.152;2024-03-29T10:33:18;2.05;;;1.00;;
1949;SDS011;975;48.760;9.152;2024-03-29T10:35:48;1.30;;;0.90;;
1949;SDS011;975;48.760;9.152;2024-03-29T10:38:17;2.63;;;0.80;;
1949;SDS011;975;48.760;9.152;2024-03-29T10:40:45;1.85;;;0.98;;
1949;SDS011;975;48.760;9.152;2024-03-29T10:43:13;4.10;;;0.80;;
1949;SDS011;975;48.760;9.152;2024-03-29T10:45:42;2.83;;;1.15;;
1949;SDS011;975;48.760;9.152;2024-03-29T10:48:14;5.60;;;1.40;;
1949;SDS011;975;48.760;9.152;2024-03-29T10:50:43;2.08;;;1.10;;
1949;SDS011;975;48.760;9.152;2024-03-29T10:53:11;3.40;;;1.10;;
1949;SDS011;975;48.760;9.152;2024-03-29T10:55:42;2.47;;;0.82;;
1949;SDS011;975;48.760;9.152;2024-03-29T10:58:10;2.58;;;0.70;;
1949;SDS011;975;48.760;9.152;2024-03-29T11:00:41;3.33;;;0.93;;
1949;SDS011;975;48.760;9.152;2024-03-29T11:03:12;2.17;;;0.80;;
1949;SDS011;975;48.760;9.152;2024-03-29T11:05:43;1.73;;;0.90;;
1949;SDS011;975;48.760;9.152;2024-03-29T11:08:14;1.95;;;0.85;;
1949;SDS011;975;48.760;9.152;2024-03-29T11:13:17;2.63;;;0.93;;
1949;SDS011;975;48.760;9.152;2024-03-29T11:15:45;4.35;;;1.10;;
1949;SDS011;975;48.760;9.152;2024-03-29T11:18:14;2.53;;;0.88;;
1949;SDS011;975;48.760;9.152;2024-03-29T11:20:44;1.63;;;0.90;;
1949;SDS011;975;48.760;9.152;2024-03-29T11:23:18;1.23;;;0.85;;
1949;SDS011;975;48.760;9.152;2024-03-29T11:25:48;1.70;;;1.05;;
1949;SDS011;975;48.760;9.152;2024-03-29T11:30:49;1.25;;;0.90;;
1949;SDS011;975;48.760;9.152;2024-03-29T11:33:29;1.17;;;0.63;;
1949;SDS011;975;48.760;9.152;2024-03-29T11:35:57;1.65;;;1.00;;
1949;SDS011;975;48.760;9.152;2024-03-29T11:38:32;1.52;;;1.00;;
1949;SDS011;975;48.760;9.152;2024-03-29T11:41:01;3.35;;;1.40;;
1949;SDS011;975;48.760;9.152;2024-03-29T11:43:30;3.33;;;1.10;;
1949;SDS011;975;48.760;9.152;2024-03-29T11:45:59;3.72;;;1.35;;
1949;SDS011;975;48.760;9.152;2024-03-29T11:48:32;2.80;;;1.45;;
1949;SDS011;975;48.760;9.152;2024-03-29T11:51:01;3.75;;;1.10;;
1949;SDS011;975;48.760;9.152;2024-03-29T11:53:35;4.68;;;1.30;;
1949;SDS011;975;48.760;9.152;2024-03-29T11:56:03;4.22;;;1.52;;
1949;SDS011;975;48.760;9.152;2024-03-29T11:58:31;1.48;;;1.00;;
1949;SDS011;975;48.760;9.152;2024-03-29T12:01:01;2.67;;;1.30;;
1949;SDS011;975;48.760;9.152;2024-03-29T12:03:29;4.32;;;1.23;;
1949;SDS011;975;48.760;9.152;2024-03-29T12:05:58;1.45;;;1.02;;
1949;SDS011;975;48.760;9.152;2024-03-29T12:08:28;1.80;;;1.08;;
1949;SDS011;975;48.760;9.152;2024-03-29T12:10:56;4.53;;;1.33;;
1949;SDS011;975;48.760;9.152;2024-03-29T12:13:24;2.60;;;1.00;;
1949;SDS011;975;48.760;9.152;2024-03-29T12:15:55;2.60;;;1.48;;
1949;SDS011;975;48.760;9.152;2024-03-29T12:18:25;1.92;;;1.42;;
1949;SDS011;975;48.760;9.152;2024-03-29T12:20:53;2.05;;;1.13;;
1949;SDS011;975;48.760;9.152;2024-03-29T12:23:21;2.38;;;1.30;;
1949;SDS011;975;48.760;9.152;2024-03-29T12:25:49;2.83;;;1.70;;
1949;SDS011;975;48.760;9.152;2024-03-29T12:28:17;2.72;;;1.40;;
1949;SDS011;975;48.760;9.152;2024-03-29T12:30:46;2.70;;;1.35;;
1949;SDS011;975;48.760;9.152;2024-03-29T12:33:14;2.42;;;1.33;;
1949;SDS011;975;48.760;9.152;2024-03-29T12:35:43;3.30;;;1.30;;
1949;SDS011;975;48.760;9.152;2024-03-29T12:38:11;3.00;;;1.30;;
1949;SDS011;975;48.760;9.152;2024-03-29T12:40:40;2.88;;;1.52;;
1949;SDS011;975;48.760;9.152;2024-03-29T12:43:11;4.10;;;1.30;;
1949;SDS011;975;48.760;9.152;2024-03-29T12:45:41;3.00;;;1.80;;
1949;SDS011;975;48.760;9.152;2024-03-29T12:48:09;2.58;;;0.95;;
1949;SDS011;975;48.760;9.152;2024-03-29T12:50:39;2.92;;;1.30;;
1949;SDS011;975;48.760;9.152;2024-03-29T12:53:08;1.88;;;1.10;;
1949;SDS011;975;48.760;9.152;2024-03-29T12:55:37;2.63;;;1.40;;
1949;SDS011;975;48.760;9.152;2024-03-29T12:58:07;2.35;;;0.73;;
1949;SDS011;975;48.760;9.152;2024-03-29T13:00:36;2.25;;;1.40;;
1949;SDS011;975;48.760;9.152;2024-03-29T13:03:04;2.08;;;1.10;;
1949;SDS011;975;48.760;9.152;2024-03-29T13:05:32;1.13;;;0.82;;
1949;SDS011;975;48.760;9.152;2024-03-29T13:08:01;2.17;;;1.00;;
1949;SDS011;975;48.760;9.152;2024-03-29T13:10:31;2.03;;;0.98;;
1949;SDS011;975;48.760;9.152;2024-03-29T13:12:59;0.90;;;0.40;;
1949;SDS011;975;48.760;9.152;2024-03-29T13:15:26;1.23;;;0.80;;
1949;SDS011;975;48.760;9.152;2024-03-29T13:17:55;2.25;;;1.00;;
1949;SDS011;975;48.760;9.152;2024-03-29T13:20:24;1.20;;;0.60;;
1949;SDS011;975;48.760;9.152;2024-03-29T13:22:52;1.73;;;1.00;;
1949;SDS011;975;48.760;9.152;2024-03-29T13:25:21;1.85;;;0.60;;
1949;SDS011;975;48.760;9.152;2024-03-29T13:27:51;2.63;;;0.75;;
1949;SDS011;975;48.760;9.152;2024-03-29T13:30:20;1.50;;;1.10;;
1949;SDS011;975;48.760;9.152;2024-03-29T13:32:48;2.25;;;1.10;;
1949;SDS011;975;48.760;9.152;2024-03-29T13:35:16;0.93;;;0.50;;
1949;SDS011;975;48.760;9.152;2024-03-29T13:37:47;1.23;;;0.50;;
1949;SDS011;975;48.760;9.152;2024-03-29T13:40:15;2.20;;;0.68;;
1949;SDS011;975;48.760;9.152;2024-03-29T13:42:43;1.90;;;1.13;;
1949;SDS011;975;48.760;9.152;2024-03-29T13:45:12;9.45;;;4.22;;
1949;SDS011;975;48.760;9.152;2024-03-29T13:47:40;7.03;;;3.30;;
1949;SDS011;975;48.760;9.152;2024-03-29T13:50:09;8.07;;;3.53;;
1949;SDS011;975;48.760;9.152;2024-03-29T13:52:37;2.33;;;0.93;;
1949;SDS011;975;48.760;9.152;2024-03-29T13:55:05;2.58;;;1.00;;
1949;SDS011;975;48.760;9.152;2024-03-29T13:57:33;2.35;;;1.20;;
1949;SDS011;975;48.760;9.152;2024-03-29T14:00:00;1.17;;;0.60;;
1949;SDS011;975;48.760;9.152;2024-03-29T14:02:31;3.40;;;1.20;;
1949;SDS011;975;48.760;9.152;2024-03-29T14:04:58;5.05;;;1.30;;
1949;SDS011;975;48.760;9.152;2024-03-29T14:07:26;1.00;;;0.80;;
1949;SDS011;975;48.760;9.152;2024-03-29T14:09:56;1.42;;;0.90;;
1949;SDS011;975;48.760;9.152;2024-03-29T14:12:24;1.48;;;0.80;;
1949;SDS011;975;48.760;9.152;2024-03-29T14:14:52;2.20;;;0.73;;
1949;SDS011;975;48.760;9.152;2024-03-29T14:17:19;1.95;;;0.75;;
1949;SDS011;975;48.760;9.152;2024-03-29T14:19:49;0.50;;;0.40;;
1949;SDS011;975;48.760;9.152;2024-03-29T14:22:16;1.65;;;0.60;;
1949;SDS011;975;48.760;9.152;2024-03-29T14:24:45;1.45;;;0.40;;
1949;SDS011;975;48.760;9.152;2024-03-29T14:27:12;1.58;;;0.47;;
1949;SDS011;975;48.760;9.152;2024-03-29T14:29:40;0.60;;;0.38;;
1949;SDS011;975;48.760;9.152;2024-03-29T14:32:10;0.57;;;0.47;;
1949;SDS011;975;48.760;9.152;2024-03-29T14:34:38;0.65;;;0.45;;
1949;SDS011;975;48.760;9.152;2024-03-29T14:37:13;0.90;;;0.43;;
1949;SDS011;975;48.760;9.152;2024-03-29T14:39:41;1.70;;;0.70;;
1949;SDS011;975;48.760;9.152;2024-03-29T14:42:10;2.45;;;0.70;;
1949;SDS011;975;48.760;9.152;2024-03-29T14:44:41;1.17;;;0.50;;
1949;SDS011;975;48.760;9.152;2024-03-29T14:47:08;2.33;;;0.50;;
1949;SDS011;975;48.760;9.152;2024-03-29T14:49:36;0.60;;;0.43;;
1949;SDS011;975;48.760;9.152;2024-03-29T14:52:04;1.95;;;0.50;;
1949;SDS011;975;48.760;9.152;2024-03-29T14:54:33;0.70;;;0.45;;
1949;SDS011;975;48.760;9.152;2024-03-29T14:57:00;0.80;;;0.60;;
1949;SDS011;975;48.760;9.152;2024-03-29T14:59:28;3.47;;;0.73;;
1949;SDS011;975;48.760;9.152;2024-03-29T15:01:58;1.45;;;0.70;;
1949;SDS011;975;48.760;9.152;2024-03-29T15:04:25;1.65;;;0.85;;
1949;SDS011;975;48.760;9.152;2024-03-29T15:06:53;0.60;;;0.40;;
1949;SDS011;975;48.760;9.152;2024-03-29T15:09:21;1.13;;;0.40;;
1949;SDS011;975;48.760;9.152;2024-03-29T15:11:50;1.00;;;0.45;;
1949;SDS011;975;48.760;9.152;2024-03-29T15:14:19;1.35;;;0.50;;
1949;SDS011;975;48.760;9.152;2024-03-29T15:16:46;0.50;;;0.43;;
1949;SDS011;975;48.760;9.152;2024-03-29T15:19:15;0.50;;;0.50;;
1949;SDS011;975;48.760;9.152;2024-03-29T15:21:42;0.63;;;0.47;;
1949;SDS011;975;48.760;9.152;2024-03-29T15:24:10;0.95;;;0.52;;
1949;SDS011;975;48.760;9.152;2024-03-29T15:26:37;0.63;;;0.57;;
1949;SDS011;975;48.760;9.152;2024-03-29T15:29:06;1.40;;;0.60;;
1949;SDS011;975;48.760;9.152;2024-03-29T15:31:33;1.40;;;0.60;;
1949;SDS011;975;48.760;9.152;2024-03-29T15:34:01;1.27;;;0.52;;
1949;SDS011;975;48.760;9.152;2024-03-29T15:36:30;1.88;;;0.85;;
1949;SDS011;975;48.760;9.152;2024-03-29T15:38:58;1.70;;;0.73;;
1949;SDS011;975;48.760;9.152;2024-03-29T15:41:30;1.73;;;0.60;;
1949;SDS011;975;48.760;9.152;2024-03-29T15:43:58;1.13;;;0.55;;
1949;SDS011;975;48.760;9.152;2024-03-29T15:46:27;2.08;;;0.63;;
1949;SDS011;975;48.760;9.152;2024-03-29T15:48:59;0.80;;;0.70;;